KGAI/GAI METAR and TAF weather

Enter ICAO airport designator
Station Type Date Time Source
KGAI METAR 2020/04/06 15:56 UTC NOAA

KGAI 061556Z AUTO 29006KT 10SM CLR 16/03 A3010 RMK AO2 SLP204 T01560033


Station Type Date Time Source
KGAI Decoded METAR 2020/04/06 15:56 UTC NOAA

Station name not available
Apr 06, 2020 - 11:56 AM EDT / 2020.04.06 1556 UTC
Wind: from the WNW (290 degrees) at 7 MPH (6 KT):0
Visibility: 10 mile(s):0
Sky conditions: clear
Temperature: 60.1 F (15.6 C)
Dew Point: 37.9 F (3.3 C)
Relative Humidity: 43%
Pressure (altimeter): 30.1 in. Hg (1019 hPa)
ob: KGAI 061556Z AUTO 29006KT 10SM CLR 16/03 A3010 RMK AO2 SLP204 T01560033
cycle: 16

Station Type Date Time Source
KGAI TAF UTC NOAA

Error!

Example: see airport list